Weather search by city/station or by Location Indicator (LI)

Please do one of the following:
a) Search the weather station by station, city or country name and click Search button
b) Enter the four-character Location Indicator (i.e. EFHK = Helsinki) and click Submit button

a) Search the station:   

b) Location Indicator:  

The ICAO Location Indicator code is explained here.

METAR = EFHK 220150Z 13004KT 9999 BKN012 03/01 Q1017 NOSIG

STATIONEFHK
NAMEHelsinki/Vantaa Arpt, --, FI
OBSERVED22.10.2019 04:50 (22.10.2019 01:50 UTC), 30 min ago
TEMPERATURE3.0°C ( 37°F)
WINDCHILL0.9 °C (34 °F)
WINDSE (130 degrees) at 5 MPH (4 knots; 2.1 m/s)
HUMIDITY87%
PRESSURE1016.9 hPa